Time;durP1;ratioP1;P1;durP2;ratioP2;P2;SDS_P1;SDS_P2;PMS_P1;PMS_P2;Temp;Humidity;BMP_temperature;BMP_pressure;BME280_temperature;BME280_humidity;BME280_pressure;Samples;Min_cycle;Max_cycle;Signal;HPM_P1;HPM_P2
2022/06/01 00:01:00;;;;;;;5.40;3.67;;;16.90;99.90;;;;;;5040236;28;20051;-47
2022/06/01 00:03:30;;;;;;;6.07;3.97;;;16.90;99.90;;;;;;5021336;28;20509;-46
2022/06/01 00:05:56;;;;;;;5.03;3.67;;;16.90;99.90;;;;;;5024773;28;20061;-47
2022/06/01 00:08:23;;;;;;;6.63;3.38;;;17.00;99.90;;;;;;5012656;28;20068;-48
2022/06/01 00:10:50;;;;;;;7.13;3.67;;;17.20;99.90;;;;;;5029340;28;20433;-47
2022/06/01 00:13:16;;;;;;;6.00;3.33;;;17.20;99.90;;;;;;4996875;28;20041;-47
2022/06/01 00:15:42;;;;;;;8.18;3.30;;;17.20;99.90;;;;;;5029379;28;20568;-47
2022/06/01 00:18:08;;;;;;;7.75;3.90;;;17.10;99.90;;;;;;5026845;28;20116;-47
2022/06/01 00:20:35;;;;;;;6.47;3.60;;;17.10;99.90;;;;;;5002768;28;20129;-47
2022/06/01 00:23:02;;;;;;;7.25;3.97;;;16.90;99.90;;;;;;5001535;28;20487;-47
2022/06/01 00:25:28;;;;;;;9.10;3.50;;;16.90;99.90;;;;;;5004663;28;20049;-47
2022/06/01 00:27:54;;;;;;;8.52;3.90;;;16.70;99.90;;;;;;5005985;28;20045;-47
2022/06/01 00:30:21;;;;;;;6.13;4.43;;;16.90;99.90;;;;;;5005168;28;20026;-46
2022/06/01 00:32:47;;;;;;;6.85;4.00;;;17.00;99.90;;;;;;4993988;28;20641;-47
2022/06/01 00:35:16;;;;;;;9.95;4.22;;;16.80;99.90;;;;;;5015158;28;20040;-47
2022/06/01 00:37:42;;;;;;;6.72;4.60;;;;;;;;;;5014729;28;20559;-47
2022/06/01 00:40:10;;;;;;;8.00;4.07;;;16.60;99.90;;;;;;4969795;28;20045;-47
2022/06/01 00:42:38;;;;;;;7.55;4.80;;;16.60;99.90;;;;;;4994319;28;20037;-47
2022/06/01 00:45:07;;;;;;;6.90;4.47;;;16.60;99.90;;;;;;5024091;28;20540;-46
2022/06/01 00:47:32;;;;;;;8.98;4.60;;;16.80;99.90;;;;;;5025594;28;20448;-47
2022/06/01 00:50:23;;;;;;;9.32;4.60;;;16.80;99.90;;;;;;5026010;28;20068;-47
2022/06/01 00:52:55;;;;;;;8.98;4.60;;;16.90;99.90;;;;;;5017255;28;20412;-47
2022/06/01 00:55:34;;;;;;;10.80;4.50;;;17.00;99.90;;;;;;5021058;28;20402;-47
2022/06/01 00:58:14;;;;;;;7.25;4.45;;;17.00;99.90;;;;;;5018043;28;20045;-48
2022/06/01 01:00:41;;;;;;;6.07;4.20;;;16.90;99.90;;;;;;5017789;28;20052;-47
2022/06/01 01:03:10;;;;;;;9.93;4.78;;;16.80;99.90;;;;;;5018908;28;20038;-46
2022/06/01 01:05:40;;;;;;;6.80;4.85;;;16.60;99.90;;;;;;5018849;28;21006;-46
2022/06/01 01:08:06;;;;;;;8.27;4.47;;;16.50;99.90;;;;;;5023361;28;20511;-46
2022/06/01 01:10:33;;;;;;;7.68;4.60;;;16.50;99.90;;;;;;5017220;28;20362;-46
2022/06/01 01:13:01;;;;;;;9.15;4.50;;;16.50;99.90;;;;;;5019263;28;20029;-47
2022/06/01 01:15:52;;;;;;;10.38;5.15;;;16.60;99.90;;;;;;5021148;28;20591;-46
2022/06/01 01:18:21;;;;;;;9.45;4.93;;;16.40;99.90;;;;;;5018551;28;20129;-46
2022/06/01 01:21:01;;;;;;;6.75;4.45;;;16.50;99.90;;;;;;5021760;28;20548;-47
2022/06/01 01:23:56;;;;;;;14.93;4.97;;;16.50;99.90;;;;;;5012070;28;20124;-47
2022/06/01 01:26:23;;;;;;;8.18;5.35;;;16.30;99.90;;;;;;5016893;28;20053;-48
2022/06/01 01:28:50;;;;;;;9.25;5.30;;;16.20;99.90;;;;;;5017402;28;20072;-47
2022/06/01 01:31:19;;;;;;;8.38;4.93;;;;;;;;;;5022097;28;20044;-47
2022/06/01 01:33:46;;;;;;;10.45;5.20;;;;;;;;;;5017808;28;20026;-46
2022/06/01 01:36:14;;;;;;;7.75;5.47;;;;;;;;;;5011835;28;20433;-47
2022/06/01 01:38:40;;;;;;;8.00;5.43;;;;;;;;;;5041661;28;20525;-47
2022/06/01 01:41:07;;;;;;;7.65;5.20;;;;;;;;;;5017193;28;20033;-47
2022/06/01 01:43:34;;;;;;;9.98;5.05;;;;;;;;;;5020028;28;20076;-46
2022/06/01 01:46:01;;;;;;;8.82;6.05;;;;;;;;;;5032936;28;20045;-47
2022/06/01 01:48:28;;;;;;;22.38;16.65;;;;;;;;;;5010760;28;20099;-46
2022/06/01 01:50:54;;;;;;;12.15;10.88;;;;;;;;;;5014521;28;20030;-46
2022/06/01 01:53:21;;;;;;;16.90;8.95;;;;;;;;;;5057156;28;20042;-47
2022/06/01 01:56:11;;;;;;;13.32;5.20;;;;;;;;;;5012815;28;20088;-46
2022/06/01 01:58:41;;;;;;;13.48;4.55;;;;;;;;;;5006962;28;20124;-47
2022/06/01 02:01:11;;;;;;;8.10;5.03;;;;;;;;;;5002355;28;20045;-47
2022/06/01 02:03:37;;;;;;;6.38;4.60;;;;;;;;;;5006891;28;20049;-47
2022/06/01 02:06:09;;;;;;;11.10;4.57;;;;;;;;;;5008582;28;20036;-47
2022/06/01 02:08:35;;;;;;;;;;;;;;;;;;5009499;28;20030;-46
2022/06/01 02:13:57;;;;;;;9.63;5.07;;;;;;;;;;5007919;28;20048;-47
2022/06/01 02:16:25;;;;;;;8.00;4.07;;;;;;;;;;5003592;28;20046;-47
2022/06/01 02:18:54;;;;;;;10.35;4.15;;;;;;;;;;4989684;28;20148;-47
2022/06/01 02:21:22;;;;;;;7.30;4.18;;;;;;;;;;5007765;28;20073;-47
2022/06/01 02:23:49;;;;;;;9.15;4.60;;;;;;;;;;5008883;28;20061;-47
2022/06/01 02:26:18;;;;;;;11.68;4.32;;;;;;;;;;5007312;28;20481;-47
2022/06/01 02:28:46;;;;;;;9.95;4.43;;;;;;;;;;5006271;28;20111;-48
2022/06/01 02:31:12;;;;;;;10.95;4.57;;;;;;;;;;5008556;28;20081;-47
2022/06/01 02:33:39;;;;;;;12.20;5.88;;;16.60;99.90;;;;;;4990445;28;20117;-48
2022/06/01 02:36:08;;;;;;;10.55;5.35;;;16.50;99.90;;;;;;4977420;28;20642;-47
2022/06/01 02:38:43;;;;;;;12.95;5.47;;;16.40;99.90;;;;;;5038362;28;20129;-47
2022/06/01 02:42:25;;;;;;;9.30;5.25;;;16.40;99.90;;;;;;5020959;28;20038;-48
2022/06/01 02:43:55;;;;;;;12.95;5.32;;;16.40;99.90;;;;;;5024174;28;20071;-48
2022/06/01 02:46:21;;;;;;;13.30;5.90;;;16.40;99.90;;;;;;5035457;28;20489;-48
2022/06/01 02:48:47;;;;;;;7.97;5.10;;;16.30;99.90;;;;;;5016019;28;20018;-48
2022/06/01 02:51:15;;;;;;;10.85;6.40;;;16.30;99.90;;;;;;5019296;28;20064;-48
2022/06/01 02:53:41;;;;;;;11.32;5.60;;;16.20;99.90;;;;;;5022038;28;20038;-47
2022/06/01 02:56:11;;;;;;;58.45;8.55;;;16.10;99.90;;;;;;5024495;28;20026;-48
2022/06/01 02:58:37;;;;;;;54.05;9.25;;;16.10;99.90;;;;;;5017272;28;20065;-48
2022/06/01 03:01:03;;;;;;;15.95;7.05;;;16.10;99.90;;;;;;5030807;28;20497;-48
2022/06/01 03:03:30;;;;;;;9.25;6.40;;;16.20;99.90;;;;;;5019208;28;20041;-47
2022/06/01 03:05:56;;;;;;;11.75;5.78;;;16.30;99.90;;;;;;5021564;28;20030;-49
2022/06/01 03:08:22;;;;;;;7.38;4.95;;;16.40;99.90;;;;;;5033122;28;20133;-47
2022/06/01 03:10:49;;;;;;;9.80;5.32;;;16.40;99.90;;;;;;5023024;28;20037;-48
2022/06/01 03:13:18;;;;;;;13.20;5.35;;;16.40;99.90;;;;;;5022955;28;20030;-47
2022/06/01 03:15:44;;;;;;;7.70;5.60;;;16.30;99.90;;;;;;5062156;28;20395;-48
2022/06/01 03:18:10;;;;;;;7.18;4.93;;;16.50;99.90;;;;;;5023058;28;20038;-48
2022/06/01 03:20:38;;;;;;;7.32;3.80;;;16.50;99.90;;;;;;5043184;28;20048;-48
2022/06/01 03:23:04;;;;;;;7.97;3.95;;;16.40;99.90;;;;;;5021922;28;20061;-48
2022/06/01 03:25:30;;;;;;;7.30;3.85;;;16.30;99.90;;;;;;5022826;28;20486;-47
2022/06/01 03:27:59;;;;;;;10.30;3.90;;;16.20;99.90;;;;;;5020663;28;20083;-48
2022/06/01 03:30:25;;;;;;;9.98;4.35;;;16.20;99.90;;;;;;5021742;28;20045;-47
2022/06/01 03:32:52;;;;;;;9.52;4.18;;;16.10;99.90;;;;;;5018661;28;20382;-48
2022/06/01 03:35:22;;;;;;;8.85;4.85;;;16.10;99.90;;;;;;5036664;28;20085;-47
2022/06/01 03:37:48;;;;;;;11.00;4.75;;;16.10;99.90;;;;;;5020804;28;20033;-48
2022/06/01 03:40:16;;;;;;;10.00;5.53;;;16.10;99.90;;;;;;5044817;28;20045;-48
2022/06/01 03:42:42;;;;;;;14.40;6.22;;;16.20;99.90;;;;;;5048062;28;20048;-48
2022/06/01 03:47:59;;;;;;;19.42;7.53;;;16.20;99.90;;;;;;5002591;28;20085;-48
2022/06/01 03:50:27;;;;;;;14.52;6.35;;;16.20;99.90;;;;;;4996009;28;20072;-47
2022/06/01 03:52:54;;;;;;;14.85;7.82;;;16.20;99.90;;;;;;4996992;28;20049;-48
2022/06/01 03:55:22;;;;;;;12.43;6.40;;;16.20;99.90;;;;;;5005769;28;20120;-48
2022/06/01 03:57:51;;;;;;;15.43;7.13;;;16.10;99.90;;;;;;4965898;28;20390;-47
2022/06/01 04:00:23;;;;;;;15.45;7.15;;;15.90;99.90;;;;;;5001191;28;20046;-48
2022/06/01 04:02:50;;;;;;;12.18;6.60;;;15.90;99.90;;;;;;5001079;28;20046;-47
2022/06/01 04:05:16;;;;;;;13.00;8.35;;;15.80;99.90;;;;;;4985173;28;20045;-48
2022/06/01 04:07:42;;;;;;;16.73;8.80;;;15.80;99.90;;;;;;5006091;28;20129;-48
2022/06/01 04:10:09;;;;;;;12.27;8.07;;;16.00;99.90;;;;;;5000408;28;20113;-48
2022/06/01 04:12:36;;;;;;;14.68;7.45;;;16.10;99.90;;;;;;5002102;28;20030;-48
2022/06/01 04:15:03;;;;;;;19.45;8.18;;;16.20;99.90;;;;;;4982138;28;20477;-47
2022/06/01 04:17:29;;;;;;;13.32;7.93;;;16.30;99.90;;;;;;5001340;28;20034;-48
2022/06/01 04:19:54;;;;;;;11.35;7.90;;;16.40;99.90;;;;;;5042972;28;20049;-48
2022/06/01 04:22:21;;;;;;;14.50;7.05;;;16.60;99.90;;;;;;5068807;28;20125;-47
2022/06/01 04:24:47;;;;;;;15.13;8.30;;;16.70;99.90;;;;;;5047410;28;20064;-47
2022/06/01 04:27:13;;;;;;;14.90;7.63;;;16.70;99.90;;;;;;5038189;28;20040;-47
2022/06/01 04:29:39;;;;;;;13.38;7.20;;;16.90;99.90;;;;;;5010734;28;20053;-48
2022/06/01 04:32:10;;;;;;;16.55;7.05;;;17.00;99.90;;;;;;5016000;28;20033;-47
2022/06/01 04:34:37;;;;;;;12.80;6.83;;;17.20;99.90;;;;;;5013108;28;20049;-48
2022/06/01 04:37:03;;;;;;;11.43;7.10;;;17.40;99.90;;;;;;5052458;28;20774;-48
2022/06/01 04:39:29;;;;;;;11.52;6.13;;;17.50;99.90;;;;;;5043579;28;20134;-48
2022/06/01 04:41:55;;;;;;;10.85;6.65;;;17.70;99.90;;;;;;5016322;28;20087;-48
2022/06/01 04:44:21;;;;;;;12.48;6.43;;;17.80;99.90;;;;;;5019078;28;20127;-48
2022/06/01 04:46:47;;;;;;;10.93;6.00;;;17.80;99.90;;;;;;5022108;28;20496;-48
2022/06/01 04:49:13;;;;;;;10.82;6.22;;;17.90;99.90;;;;;;5019837;28;20030;-48
2022/06/01 04:51:39;;;;;;;10.43;5.95;;;17.90;99.90;;;;;;5014943;28;20107;-48
2022/06/01 04:54:06;;;;;;;8.32;5.88;;;18.00;99.90;;;;;;5061515;28;20037;-48
2022/06/01 04:56:31;;;;;;;12.02;6.10;;;18.20;99.90;;;;;;5068349;28;20550;-48
2022/06/01 04:58:57;;;;;;;9.75;6.35;;;18.40;99.90;;;;;;5018217;28;20068;-48
2022/06/01 05:01:23;;;;;;;8.98;5.40;;;18.50;99.90;;;;;;5068735;28;20036;-48
2022/06/01 05:03:50;;;;;;;10.23;5.85;;;18.60;99.90;;;;;;5068156;28;20081;-47
2022/06/01 05:06:16;;;;;;;9.23;6.00;;;18.80;99.90;;;;;;5067904;28;20526;-48
2022/06/01 05:08:42;;;;;;;10.32;6.20;;;18.90;99.90;;;;;;5067955;28;20079;-48
2022/06/01 05:11:08;;;;;;;17.83;7.20;;;19.00;99.90;;;;;;5068987;28;20032;-48
2022/06/01 05:13:34;;;;;;;8.70;5.93;;;19.10;99.90;;;;;;5068179;28;20693;-48
2022/06/01 05:16:04;;;;;;;8.98;4.82;;;19.00;99.90;;;;;;5066926;28;20444;-48
2022/06/01 05:18:30;;;;;;;8.85;4.65;;;18.90;99.90;;;;;;5028960;28;20036;-48
2022/06/01 05:20:56;;;;;;;11.10;5.75;;;18.50;99.90;;;;;;5066477;28;20063;-48
2022/06/01 05:23:23;;;;;;;12.85;4.88;;;19.10;99.90;;;;;;5033166;28;20150;-48
2022/06/01 05:25:52;;;;;;;8.13;4.55;;;19.10;99.90;;;;;;5027214;28;20045;-48
2022/06/01 05:28:23;;;;;;;6.72;4.57;;;19.30;99.90;;;;;;5032101;28;20061;-48
2022/06/01 05:30:50;;;;;;;16.00;5.90;;;19.30;99.90;;;;;;5014129;28;20042;-48
2022/06/01 05:33:16;;;;;;;13.43;4.95;;;;;;;;;;5018415;28;20032;-48
2022/06/01 05:35:43;;;;;;;10.07;4.28;;;19.50;99.90;;;;;;5039572;28;20087;-48
2022/06/01 05:38:09;;;;;;;9.85;5.50;;;19.60;99.90;;;;;;5021263;28;20426;-48
2022/06/01 05:40:35;;;;;;;9.32;4.20;;;19.60;99.90;;;;;;5051535;28;20084;-49
2022/06/01 05:43:09;;;;;;;7.45;4.28;;;19.50;99.90;;;;;;5041500;28;20100;-48
2022/06/01 05:45:34;;;;;;;9.13;4.90;;;19.60;99.90;;;;;;5022263;28;20053;-48
2022/06/01 05:48:00;;;;;;;10.75;4.32;;;19.70;99.90;;;;;;5029355;28;20064;-48
2022/06/01 05:50:26;;;;;;;15.43;3.83;;;19.70;99.90;;;;;;5027198;28;20046;-48
2022/06/01 05:52:51;;;;;;;9.63;3.92;;;19.60;99.90;;;;;;5017389;28;20036;-48
2022/06/01 05:55:17;;;;;;;8.18;4.07;;;19.80;99.90;;;;;;5017972;28;20037;-48
2022/06/01 05:57:43;;;;;;;7.20;3.92;;;19.80;99.90;;;;;;5045339;28;20424;-47
2022/06/01 06:00:11;;;;;;;7.57;3.92;;;19.90;99.90;;;;;;5027648;28;20064;-48
2022/06/01 06:02:38;;;;;;;12.05;5.05;;;20.20;99.90;;;;;;5019239;28;20041;-48
2022/06/01 06:06:12;;;;;;;6.47;3.90;;;20.10;99.90;;;;;;5023173;28;20045;-47
2022/06/01 06:07:51;;;;;;;10.55;4.10;;;20.00;99.90;;;;;;5021022;28;20029;-48
2022/06/01 06:10:17;;;;;;;6.68;3.70;;;20.10;99.90;;;;;;5043235;28;20292;-48
2022/06/01 06:12:43;;;;;;;8.48;3.25;;;20.10;99.90;;;;;;5018495;28;20034;-48
2022/06/01 06:15:10;;;;;;;6.97;3.28;;;20.30;99.90;;;;;;5048091;28;20044;-49
2022/06/01 06:17:35;;;;;;;7.40;3.42;;;20.40;99.90;;;;;;5000923;28;20036;-48
2022/06/01 06:20:02;;;;;;;12.38;3.85;;;20.40;99.90;;;;;;5028891;28;20389;-49
2022/06/01 06:22:28;;;;;;;7.82;3.10;;;20.40;99.90;;;;;;5022546;28;20061;-48
2022/06/01 06:24:53;;;;;;;8.73;3.72;;;20.60;99.90;;;;;;5029446;28;20053;-48
2022/06/01 06:27:19;;;;;;;10.13;3.42;;;20.80;99.90;;;;;;5028758;28;20041;-48
2022/06/01 06:29:45;;;;;;;8.80;3.80;;;20.80;99.90;;;;;;5023485;28;20057;-48
2022/06/01 06:32:11;;;;;;;5.32;2.58;;;21.10;99.90;;;;;;5020414;28;20034;-48
2022/06/01 06:34:38;;;;;;;10.25;3.65;;;21.00;99.90;;;;;;5013324;28;20120;-48
2022/06/01 06:37:04;;;;;;;5.22;2.80;;;21.00;99.90;;;;;;5029791;28;20034;-48
2022/06/01 06:39:30;;;;;;;8.98;2.88;;;21.10;99.90;;;;;;5038204;28;20046;-50
2022/06/01 06:41:56;;;;;;;8.70;3.10;;;21.20;99.90;;;;;;5030004;28;20117;-48
2022/06/01 06:44:21;;;;;;;7.05;3.90;;;21.40;99.90;;;;;;5026366;28;20129;-48
2022/06/01 06:46:47;;;;;;;5.72;2.72;;;21.50;99.90;;;;;;5028725;28;20037;-48
2022/06/01 06:49:13;;;;;;;5.82;2.50;;;21.70;99.90;;;;;;5060931;28;20079;-49
2022/06/01 06:51:39;;;;;;;6.38;2.40;;;21.80;99.90;;;;;;5066807;28;20037;-48
2022/06/01 06:54:05;;;;;;;8.98;2.65;;;22.00;99.90;;;;;;5036579;28;20049;-48
2022/06/01 06:56:31;;;;;;;7.70;2.17;;;21.90;99.90;;;;;;5029608;28;20069;-48
2022/06/01 06:58:57;;;;;;;7.03;2.50;;;22.10;99.90;;;;;;5053446;28;20498;-48
2022/06/01 07:01:24;;;;;;;5.03;2.63;;;22.30;99.90;;;;;;5026022;28;20041;-48
2022/06/01 07:03:50;;;;;;;5.75;2.85;;;22.20;99.90;;;;;;5025002;28;20077;-47
2022/06/01 07:06:19;;;;;;;6.88;2.83;;;;;;;;;;5018499;28;20030;-47
2022/06/01 07:08:48;;;;;;;6.20;2.08;;;22.50;99.90;;;;;;5025881;28;20516;-48
2022/06/01 07:11:16;;;;;;;6.63;2.70;;;22.50;99.90;;;;;;5028228;28;20030;-48
2022/06/01 07:13:43;;;;;;;7.68;2.67;;;22.50;99.90;;;;;;5023742;28;20026;-48
2022/06/01 07:16:14;;;;;;;5.00;2.55;;;22.70;99.90;;;;;;5018497;28;20032;-48
2022/06/01 07:18:42;;;;;;;3.22;2.40;;;22.70;99.90;;;;;;5039982;28;20544;-48
2022/06/01 07:21:09;;;;;;;6.05;2.83;;;22.70;99.90;;;;;;5046034;28;20078;-48
2022/06/01 07:23:37;;;;;;;10.73;3.72;;;22.90;99.90;;;;;;5023391;28;20025;-48
2022/06/01 07:26:04;;;;;;;10.88;3.28;;;;;;;;;;5028709;28;20025;-48
2022/06/01 07:28:30;;;;;;;6.38;2.58;;;;;;;;;;5053628;28;20128;-48
2022/06/01 07:30:59;;;;;;;5.38;2.35;;;23.40;99.90;;;;;;5021618;28;20091;-48
2022/06/01 07:33:28;;;;;;;7.60;2.40;;;23.50;99.90;;;;;;5038505;28;20041;-49
2022/06/01 07:35:54;;;;;;;3.92;2.42;;;23.30;99.90;;;;;;5020599;28;20505;-48
2022/06/01 07:43:53;;;;;;;6.95;2.80;;;23.50;99.90;;;;;;5022118;28;20111;-47
2022/06/01 07:46:19;;;;;;;4.85;2.70;;;23.50;99.90;;;;;;5021176;28;20060;-48
2022/06/01 07:48:46;;;;;;;6.90;3.30;;;;;;;;;;5035687;28;20098;-51
2022/06/01 07:51:13;;;;;;;10.23;2.80;;;23.90;99.90;;;;;;5020926;28;20178;-46
2022/06/01 07:53:39;;;;;;;8.32;3.00;;;24.00;99.90;;;;;;5020362;28;20477;-46
2022/06/01 07:56:05;;;;;;;8.48;3.03;;;24.00;99.90;;;;;;5016098;28;20046;-46
2022/06/01 07:58:31;;;;;;;7.57;3.83;;;24.10;99.90;;;;;;5014011;28;20042;-45
2022/06/01 08:00:57;;;;;;;7.72;3.67;;;23.80;99.90;;;;;;5016122;28;20045;-45
2022/06/01 08:03:23;;;;;;;4.07;2.70;;;23.80;99.90;;;;;;5005403;28;20417;-46
2022/06/01 08:05:49;;;;;;;6.88;2.92;;;24.00;99.90;;;;;;5029358;28;20516;-45
2022/06/01 08:08:15;;;;;;;8.13;3.20;;;24.00;99.90;;;;;;5019739;28;20034;-46
2022/06/01 08:10:41;;;;;;;8.07;3.55;;;;;;;;;;5019436;28;20033;-45
2022/06/01 08:13:13;;;;;;;9.70;3.20;;;24.60;99.90;;;;;;5015795;28;20037;-46
2022/06/01 08:15:39;;;;;;;7.50;3.05;;;;;;;;;;5016590;28;20037;-45
2022/06/01 08:18:05;;;;;;;9.27;3.63;;;;;;;;;;5034014;28;20049;-46
2022/06/01 08:20:32;;;;;;;8.35;3.10;;;;;;;;;;5025335;28;20042;-48
2022/06/01 08:22:59;;;;;;;9.05;4.07;;;25.00;99.90;;;;;;5017607;28;20080;-51
2022/06/01 08:25:25;;;;;;;7.70;3.95;;;25.20;99.90;;;;;;5053979;28;20128;-48
2022/06/01 08:27:52;;;;;;;5.85;3.40;;;25.20;99.90;;;;;;5020313;28;20520;-47
2022/06/01 08:30:20;;;;;;;6.82;3.20;;;25.00;99.90;;;;;;5019049;28;20117;-47
2022/06/01 08:32:46;;;;;;;6.07;3.50;;;25.00;99.90;;;;;;5021623;28;20049;-47
2022/06/01 08:35:14;;;;;;;5.93;4.00;;;;;;;;;;5017599;28;20037;-46
2022/06/01 08:37:41;;;;;;;9.35;3.95;;;;;;;;;;5021440;28;20021;-47
2022/06/01 08:40:07;;;;;;;10.65;4.80;;;25.40;99.90;;;;;;5027382;28;20042;-47
2022/06/01 08:42:34;;;;;;;8.50;3.85;;;25.60;99.90;;;;;;5023400;28;20443;-47
2022/06/01 08:45:07;;;;;;;7.78;4.38;;;25.70;99.90;;;;;;5020119;28;20030;-47
2022/06/01 08:47:37;;;;;;;5.80;3.80;;;25.70;99.90;;;;;;5026976;28;20128;-47
2022/06/01 08:50:05;;;;;;;7.60;4.50;;;;;;;;;;5025010;28;20033;-47
2022/06/01 08:52:32;;;;;;;7.22;4.03;;;;;;;;;;5022586;28;20025;-47
2022/06/01 08:54:58;;;;;;;11.82;4.70;;;;;;;;;;5022334;28;20049;-46
2022/06/01 08:57:33;;;;;;;8.38;4.38;;;26.20;99.90;;;;;;5055950;28;20129;-46
2022/06/01 09:00:07;;;;;;;8.88;3.40;;;25.90;99.90;;;;;;5027718;28;20033;-47
2022/06/01 09:02:53;;;;;;;7.15;4.10;;;25.90;99.90;;;;;;5024454;28;20026;-47
2022/06/01 09:05:43;;;;;;;7.20;4.25;;;26.00;99.90;;;;;;5021415;28;20438;-47
2022/06/01 09:08:09;;;;;;;7.40;3.80;;;;;;;;;;5020492;28;20033;-47
2022/06/01 09:11:01;;;;;;;9.55;4.45;;;26.40;99.90;;;;;;5029414;28;20109;-47
2022/06/01 09:13:32;;;;;;;7.22;3.92;;;;;;;;;;5024880;28;20060;-47
2022/06/01 09:16:20;;;;;;;8.38;4.75;;;;;;;;;;5020885;28;20449;-47
2022/06/01 09:18:49;;;;;;;7.95;3.92;;;;;;;;;;5020591;28;20030;-47
2022/06/01 09:24:09;;;;;;;7.82;4.75;;;27.00;99.90;;;;;;5020840;28;20413;-48
2022/06/01 09:26:59;;;;;;;10.50;4.63;;;26.70;99.90;;;;;;5024195;28;20046;-47
2022/06/01 09:29:27;;;;;;;10.75;4.53;;;;;;;;;;5026349;28;20557;-47
2022/06/01 09:32:12;;;;;;;9.63;5.18;;;27.00;99.90;;;;;;5021026;28;20413;-47
2022/06/01 09:34:44;;;;;;;8.88;4.72;;;27.10;99.90;;;;;;5023705;28;20555;-47
2022/06/01 09:37:27;;;;;;;7.65;4.85;;;27.40;99.90;;;;;;5014515;28;20054;-47
2022/06/01 09:40:04;;;;;;;8.45;4.65;;;27.10;99.90;;;;;;5021104;28;20045;-47
2022/06/01 09:42:38;;;;;;;10.90;5.68;;;27.20;99.90;;;;;;5023879;28;20041;-47
2022/06/01 09:45:27;;;;;;;8.32;5.40;;;27.00;99.90;;;;;;5018293;28;20029;-48
2022/06/01 09:48:11;;;;;;;9.90;5.00;;;27.10;99.90;;;;;;5018306;28;20026;-47
2022/06/01 09:50:38;;;;;;;9.13;4.97;;;;;;;;;;5027796;28;20021;-47
2022/06/01 09:53:10;;;;;;;5.75;4.57;;;27.80;99.90;;;;;;5031717;28;20477;-47
2022/06/01 09:56:07;;;;;;;10.40;5.85;;;27.80;99.90;;;;;;5024945;28;20080;-47
2022/06/01 10:06:55;;;;;;;7.97;4.70;;;;;;;;;;5032972;28;20049;-48
2022/06/01 10:09:31;;;;;;;6.55;4.50;;;;;;;;;;5054730;28;20034;-47
2022/06/01 10:11:57;;;;;;;10.40;4.60;;;;;;;;;;5026210;28;20070;-50
2022/06/01 10:14:36;;;;;;;6.63;4.10;;;;;;;;;;5026189;28;20041;-51
2022/06/01 10:17:08;;;;;;;5.82;4.43;;;;;;;;;;5030936;28;20484;-51
2022/06/01 10:19:36;;;;;;;8.82;4.78;;;;;;;;;;5043363;28;20129;-50
2022/06/01 10:22:07;;;;;;;5.90;3.90;;;;;;;;;;5025794;28;20030;-50
2022/06/01 10:24:40;;;;;;;9.80;4.53;;;29.30;99.90;;;;;;5023277;28;20026;-50
2022/06/01 10:27:07;;;;;;;7.65;4.95;;;28.80;99.90;;;;;;5024604;28;20037;-51
2022/06/01 10:29:48;;;;;;;13.57;5.72;;;29.00;99.90;;;;;;5053548;28;20068;-50
2022/06/01 10:32:35;;;;;;;8.25;4.38;;;;;;;;;;5031414;28;20049;-49
2022/06/01 10:35:15;;;;;;;11.65;4.55;;;;;;;;;;5024596;28;20411;-53
2022/06/01 10:38:12;;;;;;;10.18;5.40;;;28.60;99.90;;;;;;5058886;28;20045;-55
2022/06/01 10:40:42;;;;;;;10.40;5.70;;;29.60;99.90;;;;;;5022941;28;20409;-47
2022/06/01 10:43:22;;;;;;;16.33;6.93;;;;;;;;;;5023465;28;20026;-55
2022/06/01 10:45:52;;;;;;;10.18;6.10;;;29.50;99.90;;;;;;5019535;28;20037;-51
2022/06/01 10:48:27;;;;;;;11.77;5.88;;;29.60;99.90;;;;;;5062801;28;20042;-52
2022/06/01 10:50:58;;;;;;;9.88;5.78;;;29.20;99.90;;;;;;5025839;28;20486;-53
2022/06/01 10:53:48;;;;;;;8.70;4.93;;;29.50;99.90;;;;;;5029035;28;20029;-53
2022/06/01 10:56:19;;;;;;;14.65;5.78;;;29.80;99.90;;;;;;5062340;28;20411;-51
2022/06/01 10:58:45;;;;;;;13.45;6.63;;;30.30;99.90;;;;;;5060987;28;20512;-52
2022/06/01 11:01:37;;;;;;;8.18;5.32;;;30.20;99.90;;;;;;5060410;28;20059;-51
2022/06/01 11:04:03;;;;;;;;;;;;;;;;;;5059540;28;20021;-44
2022/06/01 11:07:07;;;;;;;7.65;4.38;;;30.50;99.90;;;;;;5056091;28;20372;-47
2022/06/01 11:09:44;;;;;;;11.63;5.57;;;30.60;99.90;;;;;;4994997;28;20161;-54
2022/06/01 11:12:31;;;;;;;7.90;5.00;;;30.60;99.90;;;;;;5022534;28;20034;-52
2022/06/01 11:15:18;;;;;;;8.48;5.78;;;30.30;99.90;;;;;;5027796;28;20029;-49
2022/06/01 11:17:52;;;;;;;9.63;5.53;;;30.50;99.90;;;;;;5028316;28;20033;-47
2022/06/01 11:20:27;;;;;;;13.40;6.63;;;;;;;;;;5029976;28;20041;-57
2022/06/01 11:22:59;;;;;;;8.25;5.00;;;;;;;;;;5029158;28;20586;-49
2022/06/01 11:25:43;;;;;;;9.13;6.40;;;;;;;;;;5030483;28;20041;-49
2022/06/01 11:28:15;;;;;;;12.77;6.40;;;;;;;;;;5007116;28;20106;-48
2022/06/01 11:30:49;;;;;;;11.10;5.10;;;;;;;;;;5011113;28;20030;-46
2022/06/01 11:33:37;;;;;;;10.02;5.90;;;30.80;99.90;;;;;;5003679;28;20037;-51
2022/06/01 11:36:23;;;;;;;6.32;3.97;;;30.60;99.90;;;;;;5002878;28;20500;-55
2022/06/01 11:39:15;;;;;;;12.73;5.90;;;30.50;99.90;;;;;;5000728;28;20448;-52
2022/06/01 11:42:07;;;;;;;8.98;4.88;;;31.00;99.90;;;;;;5011175;28;20100;-54
2022/06/01 11:44:38;;;;;;;14.13;5.35;;;;;;;;;;4973155;28;20074;-54
2022/06/01 11:47:14;;;;;;;8.68;4.60;;;;;;;;;;4973348;28;20114;-54
2022/06/01 11:50:04;;;;;;;11.45;6.15;;;31.90;99.90;;;;;;4972973;28;20562;-55
2022/06/01 11:52:41;;;;;;;10.95;5.18;;;32.00;99.90;;;;;;4958297;28;20039;-55
2022/06/01 11:55:15;;;;;;;10.50;5.30;;;31.30;99.90;;;;;;4965314;28;20066;-54
2022/06/01 11:57:46;;;;;;;8.65;5.50;;;31.60;99.90;;;;;;4958062;28;20123;-53
2022/06/01 12:00:14;;;;;;;8.57;5.72;;;31.40;99.90;;;;;;4934637;29;20423;-53
2022/06/01 12:02:40;;;;;;;8.77;5.90;;;31.70;99.90;;;;;;4934488;29;20046;-51
2022/06/01 12:05:19;;;;;;;6.63;4.82;;;31.80;99.90;;;;;;4932069;29;20517;-56
2022/06/01 12:07:49;;;;;;;8.68;4.32;;;31.70;99.90;;;;;;4932411;29;20039;-56
2022/06/01 12:10:20;;;;;;;10.68;5.10;;;31.40;99.90;;;;;;4933248;29;20040;-57
2022/06/01 12:12:46;;;;;;;;;;;;;;;;;;4934404;29;20098;-54
2022/06/01 12:15:34;;;;;;;9.30;4.43;;;;;;;;;;4918057;29;19911;-59
2022/06/01 12:18:09;;;;;;;11.75;6.95;;;32.00;99.90;;;;;;4937810;29;20126;-60
2022/06/01 12:20:34;;;;;;;10.85;6.18;;;32.00;99.90;;;;;;4953749;28;20046;-55
2022/06/01 12:28:48;;;;;;;11.27;6.00;;;;;;;;;;5003227;28;20061;-54
2022/06/01 12:31:20;;;;;;;7.53;5.22;;;;;;;;;;5009065;28;20433;-62
2022/06/01 12:34:04;;;;;;;10.70;6.15;;;;;;;;;;5022109;28;20079;-57
2022/06/01 12:36:36;;;;;;;12.05;6.05;;;;;;;;;;5024841;28;20075;-59
2022/06/01 12:39:13;;;;;;;12.48;6.10;;;;;;;;;;5044788;28;20155;-59
2022/06/01 12:41:40;;;;;;;12.65;5.45;;;;;;;;;;5022596;28;20052;-58
2022/06/01 12:44:09;;;;;;;14.88;5.50;;;32.50;99.90;;;;;;5020264;28;20556;-55
2022/06/01 12:46:41;;;;;;;11.00;5.95;;;32.30;99.90;;;;;;5018962;28;20113;-58
2022/06/01 12:49:32;;;;;;;9.60;5.30;;;32.30;99.90;;;;;;5017637;28;20541;-56
2022/06/01 12:52:05;;;;;;;14.55;5.85;;;32.20;99.90;;;;;;5023248;28;20045;-57
2022/06/01 12:54:33;;;;;;;8.52;5.32;;;32.30;99.90;;;;;;5020139;28;20030;-55
2022/06/01 12:57:01;;;;;;;15.85;5.68;;;32.30;99.90;;;;;;5016875;28;20386;-56
2022/06/01 12:59:33;;;;;;;6.95;4.95;;;32.00;99.90;;;;;;5021629;28;20041;-58
2022/06/01 13:02:04;;;;;;;7.00;4.20;;;32.10;99.90;;;;;;5021839;28;20037;-53
2022/06/01 13:04:29;;;;;;;8.88;5.13;;;31.80;99.90;;;;;;5020933;28;20031;-55
2022/06/01 13:06:56;;;;;;;8.48;4.30;;;31.90;99.90;;;;;;5021613;28;20030;-60
2022/06/01 13:09:28;;;;;;;10.43;5.22;;;31.80;99.90;;;;;;5028693;28;20160;-55
2022/06/01 13:11:59;;;;;;;11.02;5.63;;;32.10;99.90;;;;;;5014299;28;20108;-56
2022/06/01 13:14:26;;;;;;;;;;;31.90;99.90;;;;;;5014088;28;20470;-58
2022/06/01 13:16:52;;;;;;;11.30;5.60;;;32.20;99.90;;;;;;5011721;28;19948;-58
2022/06/01 13:19:21;;;;;;;12.63;5.85;;;32.40;99.90;;;;;;5028372;28;20249;-56
2022/06/01 13:21:51;;;;;;;7.82;4.60;;;32.10;99.90;;;;;;5011690;28;20041;-60
2022/06/01 13:24:18;;;;;;;10.48;4.43;;;32.00;99.90;;;;;;5013858;28;20026;-57
2022/06/01 13:26:51;;;;;;;7.45;4.10;;;31.90;99.90;;;;;;5013793;28;20022;-55
2022/06/01 13:29:23;;;;;;;11.75;4.68;;;32.20;99.90;;;;;;5013312;28;20053;-57
2022/06/01 13:32:00;;;;;;;12.25;4.60;;;32.30;99.90;;;;;;5051183;28;20076;-59
2022/06/01 13:34:32;;;;;;;10.90;4.05;;;32.00;99.90;;;;;;5017897;28;20071;-54
2022/06/01 13:37:19;;;;;;;9.13;3.70;;;32.10;99.90;;;;;;5034500;28;20036;-60
2022/06/01 13:39:59;;;;;;;9.02;3.63;;;32.50;99.40;;;;;;5050866;28;20036;-60
2022/06/01 13:42:49;;;;;;;9.02;4.13;;;32.90;99.90;;;;;;5067105;28;20123;-58
2022/06/01 13:45:19;;;;;;;10.82;4.20;;;32.60;99.30;;;;;;5031176;28;20033;-57
2022/06/01 13:47:54;;;;;;;10.37;3.63;;;33.00;98.00;;;;;;5030816;28;20037;-61
2022/06/01 13:50:27;;;;;;;11.82;4.18;;;32.70;98.10;;;;;;5031163;28;20639;-58
2022/06/01 13:52:53;;;;;;;8.90;3.97;;;32.70;97.00;;;;;;5031058;28;20044;-60